Latest Weather Observations for Minnipa RS

IDS60801

Issued at 4:41 pm CST Sunday 11 April 2021 (issued every 10 minutes, with the page automatically refreshed every 10 minutes)

About weather observations | Map of weather stations | Latest weather observations for SA | Other Formats
Station Details ID: 018195 Name: MINNIPA PIRSA Lat: -32.84 Lon: 135.15 Height: 165.0 m
Data from the previous 72 hours. | See also: Recent months at Minnipa RS
Date/Time
CST
Temp
°C
App
Temp
°C
Dew
Point
°C
Rel
Hum
%
Delta-T
°C
Wind Press
QNH
hPa
Press
MSL
hPa
Rain since
9am
mm
Dir  Spd
km/h
Gust
km/h
Spd
kts
Gust
kts
11/04:30pm 20.0 14.6 1.4 29 8.5 SE 19 28 10 15 1023.9 1023.5 0.0
11/04:00pm 20.6 15.2 2.4 30 8.5 SE 20 30 11 16 1023.5 1023.1 0.0
11/03:30pm 20.8 15.5 2.1 29 8.7 SE 19 30 10 16 1023.1 1022.8 0.0
11/03:00pm 20.5 15.2 1.9 29 8.6 SE 19 32 10 17 1023.2 1022.9 0.0
11/02:30pm 20.0 15.1 1.9 30 8.3 ESE 17 28 9 15 1023.9 1023.5 0.0
11/02:00pm 19.8 14.6 2.2 31 8.2 SE 19 30 10 16 1024.3 1023.9 0.0
11/01:30pm 19.7 14.4 2.1 31 8.1 SE 19 32 10 17 1024.7 1024.3 0.0
11/01:00pm 19.6 14.3 2.9 33 7.9 ESE 20 32 11 17 1025.3 1024.9 0.0
11/12:30pm 18.3 13.1 2.6 35 7.2 SE 19 28 10 15 1025.7 1025.3 0.0
11/12:00pm 19.3 14.6 3.1 34 7.6 SE 17 28 9 15 1025.9 1025.5 0.0
11/11:30am 18.7 13.2 2.1 33 7.6 SE 20 32 11 17 1026.2 1025.8 0.0
11/11:00am 17.0 11.2 2.2 37 6.7 SSE 22 32 12 17 1026.2 1025.8 0.0
11/10:30am 16.9 11.2 2.9 39 6.4 SSE 22 32 12 17 1026.3 1025.9 0.0
11/10:00am 16.1 9.6 2.5 40 6.2 SSE 26 37 14 20 1026.4 1026.0 0.0
11/09:30am 16.9 10.7 4.3 43 5.9 SE 26 32 14 17 1026.4 1026.0 0.0
11/09:00am 15.6 10.7 5.2 50 4.9 SSE 20 26 11 14 1026.4 1026.0 0.0
11/08:30am 15.0 9.9 5.8 54 4.4 SSE 22 28 12 15 1026.2 1025.8 0.0
11/08:00am 14.6 10.0 5.4 54 4.4 SSE 19 28 10 15 1025.8 1025.4 0.0
11/07:30am 14.2 9.7 6.1 58 3.9 SSE 19 28 10 15 1025.5 1025.1 0.0
11/07:00am 14.1 10.2 5.5 56 4.1 SSE 15 22 8 12 1025.2 1024.8 0.0
11/06:30am 14.3 9.9 4.6 52 4.5 SSE 17 22 9 12 1025.0 1024.6 0.0
11/06:00am 14.4 9.2 3.8 49 4.8 SSE 20 28 11 15 1024.8 1024.4 0.0
11/05:30am 14.2 9.9 3.4 48 4.9 SSE 15 19 8 10 1024.4 1024.0 0.0
11/05:00am 14.0 9.5 4.0 51 4.6 S 17 22 9 12 1024.1 1023.7 0.0
11/04:30am 14.2 9.3 5.3 55 4.2 S 20 26 11 14 1024.0 1023.6 0.0
11/04:00am 14.2 10.5 6.3 59 3.8 SSE 15 22 8 12 1023.8 1023.4 0.0
11/03:30am 14.1 10.8 6.2 59 3.8 S 13 19 7 10 1023.8 1023.4 0.0
11/03:00am 14.3 9.8 6.2 58 3.9 SSE 19 26 10 14 1023.8 1023.4 0.0
11/02:30am 14.2 10.1 6.3 59 3.8 SSE 17 24 9 13 1023.8 1023.4 0.0
11/02:00am 14.3 11.0 6.6 60 3.8 SSE 13 19 7 10 1023.9 1023.5 0.0
11/01:30am 14.4 10.8 6.7 60 3.7 SSE 15 19 8 10 1023.9 1023.5 0.0
11/01:00am 14.4 10.8 6.7 60 3.8 SSE 15 19 8 10 1023.9 1023.5 0.0
11/12:30am 14.5 10.8 6.3 58 4.0 SSE 15 20 8 11 1023.8 1023.4 0.0
11/12:00am 14.8 11.5 6.6 58 4.0 S 13 19 7 10 1024.0 1023.6 0.0
 
Date/Time
CST
Temp
°C
App
Temp
°C
Dew
Point
°C
Rel
Hum
%
Delta-T
°C
Wind Press
QNH
hPa
Press
MSL
hPa
Rain since
9am
mm
Dir  Spd
km/h
Gust
km/h
Spd
kts
Gust
kts
10/11:30pm 14.8 11.5 6.6 58 4.0 S 13 17 7 9 1024.1 1023.7 0.0
10/11:00pm 14.8 11.4 6.1 56 4.2 S 13 19 7 10 1024.2 1023.8 0.0
10/10:30pm 14.9 10.6 5.4 53 4.5 S 17 22 9 12 1024.4 1024.0 0.0
10/10:00pm 14.6 11.1 5.4 54 4.4 SSW 13 17 7 9 1024.3 1023.9 0.0
10/09:30pm 14.5 11.0 5.3 54 4.4 SSE 13 19 7 10 1023.8 1023.4 0.0
10/09:00pm 14.3 10.0 5.1 54 4.3 S 17 20 9 11 1023.5 1023.1 0.0
10/08:30pm 14.6 10.1 4.3 50 4.8 S 17 22 9 12 1023.2 1022.9 0.0
10/08:00pm 15.2 10.1 4.3 48 5.1 S 20 28 11 15 1022.9 1022.6 0.0
10/07:30pm 15.6 9.1 4.9 49 5.1 S 28 35 15 19 1022.4 1022.0 0.0
10/07:00pm 16.0 10.6 6.2 52 4.8 S 24 35 13 19 1021.9 1021.5 0.0
10/06:30pm 16.4 10.5 6.0 50 5.1 S 26 35 14 19 1021.4 1021.0 0.0
10/06:00pm 16.9 10.8 6.7 51 5.1 S 28 35 15 19 1021.0 1020.6 0.0
10/05:30pm 17.6 11.3 7.4 51 5.2 S 30 37 16 20 1020.7 1020.3 0.0
10/05:00pm 18.1 11.8 7.2 49 5.5 SSW 30 39 16 21 1020.2 1019.8 0.0
10/04:30pm 18.6 12.0 7.7 49 5.6 SSW 32 41 17 22 1020.0 1019.6 0.0
10/04:00pm 18.6 12.6 8.8 53 5.1 S 30 37 16 20 1020.0 1019.6 0.0
10/03:30pm 19.6 13.5 8.3 48 5.9 SSW 30 39 16 21 1019.8 1019.4 0.0
10/03:00pm 20.7 14.8 7.7 43 6.7 S 28 39 15 21 1019.5 1019.1 0.0
10/02:30pm 19.6 13.8 8.0 47 6.0 SSW 28 43 15 23 1019.3 1018.9 0.0
10/02:00pm 20.9 15.1 6.1 38 7.5 SSW 26 37 14 20 1019.4 1019.0 0.0
10/01:30pm 20.2 13.7 6.5 41 6.9 SSW 30 41 16 22 1019.6 1019.2 0.0
10/01:00pm 20.8 15.0 6.4 39 7.3 SSW 26 35 14 19 1019.6 1019.2 0.0
10/12:30pm 20.3 14.1 6.3 40 7.1 SSW 28 41 15 22 1020.0 1019.6 0.0
10/12:00pm 20.5 14.4 6.8 41 7.0 SSW 28 37 15 20 1019.9 1019.5 0.0
10/11:30am 19.4 13.6 7.8 47 6.0 S 28 41 15 22 1020.2 1019.8 0.0
10/11:00am 18.3 13.2 7.7 50 5.4 S 24 33 13 18 1020.3 1019.9 0.0
10/10:30am 18.7 15.0 10.3 58 4.5 SSW 20 28 11 15 1020.3 1019.9 0.0
10/10:00am 16.7 12.5 9.9 64 3.6 SSW 22 35 12 19 1020.5 1020.1 0.0
10/09:30am 15.8 12.5 11.0 73 2.6 SSW 19 22 10 12 1020.4 1020.0 0.0
10/09:00am 14.6 11.2 11.4 81 1.7 S 20 26 11 14 1020.4 1020.0 0.0
10/08:30am 13.3 10.8 11.0 86 1.2 SW 15 30 8 16 1020.1 1019.7 0.0
10/08:00am 15.2 13.0 9.3 68 3.1 S 11 15 6 8 1019.5 1019.1 0.0
10/07:30am 14.3 11.3 7.6 64 3.3 S 13 17 7 9 1019.2 1018.8 0.0
10/07:00am 14.1 11.0 7.2 63 3.4 SSW 13 15 7 8 1018.7 1018.3 0.0
10/06:30am 14.2 11.4 6.8 61 3.6 SSW 11 15 6 8 1018.5 1018.1 0.0
10/06:00am 14.7 11.0 6.3 57 4.1 SW 15 20 8 11 1018.2 1017.8 0.0
10/05:30am 14.9 11.6 6.2 56 4.2 SW 13 19 7 10 1017.9 1017.5 0.0
10/05:00am 15.2 11.9 6.2 55 4.4 SW 13 19 7 10 1017.7 1017.3 0.0
10/04:30am 15.1 11.9 6.7 57 4.1 SW 13 17 7 9 1017.6 1017.2 0.0
10/04:00am 14.7 11.7 7.5 62 3.6 SSW 13 17 7 9 1017.7 1017.3 0.0
10/03:30am 14.6 12.0 7.6 63 3.5 SW 11 15 6 8 1017.6 1017.2 0.0
10/03:00am 14.5 11.1 7.8 64 3.3 SSW 15 20 8 11 1017.7 1017.3 0.0
10/02:30am 13.9 11.7 7.7 66 3.1 SW 9 11 5 6 1017.7 1017.3 0.0
10/02:00am 13.8 11.5 7.6 66 3.1 WSW 9 13 5 7 1017.7 1017.3 0.0
10/01:30am 13.7 11.9 7.9 68 2.9 SW 7 13 4 7 1017.9 1017.5 0.0
10/01:00am 13.5 11.8 7.5 67 3.0 SW 6 9 3 5 1017.8 1017.4 0.0
10/12:30am 13.8 11.5 7.6 66 3.1 SSW 9 9 5 5 1017.8 1017.4 0.0
10/12:00am 13.4 11.5 7.4 67 3.0 S 7 9 4 5 1017.8 1017.4 0.0
 
Date/Time
CST
Temp
°C
App
Temp
°C
Dew
Point
°C
Rel
Hum
%
Delta-T
°C
Wind Press
QNH
hPa
Press
MSL
hPa
Rain since
9am
mm
Dir  Spd
km/h
Gust
km/h
Spd
kts
Gust
kts
09/11:30pm 13.2 11.2 7.0 66 3.0 SSW 7 9 4 5 1017.9 1017.5 0.0
09/11:00pm 13.8 11.5 7.3 65 3.2 S 9 11 5 6 1018.1 1017.7 0.0
09/10:30pm 13.7 10.7 7.5 66 3.1 S 13 15 7 8 1018.2 1017.8 0.0
09/10:00pm 13.5 10.8 7.5 67 3.0 S 11 13 6 7 1018.2 1017.8 0.0
09/09:30pm 13.6 10.6 7.8 68 2.9 S 13 17 7 9 1018.0 1017.6 0.0
09/09:00pm 13.6 10.2 7.6 67 3.0 S 15 19 8 10 1017.9 1017.5 0.0
09/08:30pm 13.9 10.4 7.4 65 3.2 S 15 19 8 10 1017.6 1017.2 0.0
09/08:00pm 14.6 10.2 7.6 63 3.5 S 20 26 11 14 1017.0 1016.6 0.0
09/07:30pm 15.0 11.2 7.5 61 3.7 SSW 17 22 9 12 1016.7 1016.3 0.0
09/07:00pm 15.7 11.0 7.7 59 4.0 SSW 22 30 12 16 1016.0 1015.6 0.0
09/06:30pm 16.2 11.9 7.9 58 4.2 SSW 20 30 11 16 1015.7 1015.3 0.0
09/06:00pm 17.0 12.3 7.6 54 4.8 SSW 22 30 12 16 1015.3 1014.9 0.0
09/05:30pm 17.7 12.5 7.4 51 5.2 SW 24 30 13 16 1015.0 1014.6 0.0
09/05:00pm 18.1 13.0 7.8 51 5.3 SSW 24 33 13 18 1014.9 1014.5 0.0
09/04:30pm 18.8 13.0 7.9 49 5.6 SSW 28 35 15 19 1014.7 1014.3 0.0
09/04:00pm 19.5 15.2 7.9 47 6.0 SSW 20 28 11 15 1014.8 1014.4 0.0
09/03:30pm 19.6 15.1 8.6 49 5.8 S 22 32 12 17 1014.6 1014.2 0.0
09/03:00pm 20.0 16.2 9.0 49 5.8 S 19 30 10 16 1014.5 1014.1 0.0
09/02:30pm 20.3 16.4 9.5 50 5.8 SSE 20 28 11 15 1014.6 1014.2 0.0
09/02:00pm 19.1 15.4 10.1 56 4.9 SSE 20 30 11 16 1014.4 1014.0 0.0
09/01:30pm 18.7 15.0 10.3 58 4.5 S 20 28 11 15 1014.7 1014.3 0.0
09/01:00pm 19.0 15.3 10.3 57 4.7 S 20 30 11 16 1014.9 1014.5 0.0
09/12:30pm 19.6 15.7 10.9 57 4.8 S 22 32 12 17 1014.9 1014.5 0.0
09/12:00pm 19.5 15.7 11.3 59 4.5 SSE 22 32 12 17 1015.1 1014.7 0.0
09/11:30am 18.8 15.3 10.9 60 4.3 SSE 20 28 11 15 1015.7 1015.3 0.0
09/11:00am 17.8 14.0 11.1 65 3.7 SE 22 30 12 16 1015.3 1014.9 0.0
09/10:30am 17.5 13.7 11.3 67 3.4 SSE 22 30 12 16 1016.2 1015.8 0.0
09/10:00am 18.0 14.5 12.2 69 3.2 SSE 22 32 12 17 1015.7 1015.3 0.0
09/09:30am 17.8 14.4 12.5 71 3.0 SSE 22 30 12 16 1015.6 1015.2 0.0
09/09:00am 17.7 14.4 12.8 73 2.8 SSE 22 28 12 15 1015.2 1014.8 0.0
09/08:30am 17.2 14.5 12.9 76 2.4 SSE 19 24 10 13 1015.2 1014.8 0.0
09/08:00am 16.6 13.7 12.9 79 2.1 SE 20 26 11 14 1014.8 1014.4 0.0
09/07:30am 16.3 13.4 12.8 80 2.0 SE 20 28 11 15 1014.5 1014.1 0.0
09/07:00am 16.3 13.9 12.7 79 2.0 SE 17 20 9 11 1014.6 1014.2 0.0
09/06:30am 16.5 13.5 12.7 78 2.1 SSE 20 30 11 16 1013.9 1013.5 0.0
09/06:00am 16.9 13.2 12.8 77 2.3 SSE 24 32 13 17 1014.2 1013.8 0.0
09/05:30am 17.3 14.2 13.4 78 2.2 SSE 22 32 12 17 1013.5 1013.1 0.0
09/05:00am 17.3 14.2 13.4 78 2.2 SSE 22 28 12 15 1012.9 1012.5 0.0
09/04:30am 17.3 13.8 13.4 78 2.2 SE 24 32 13 17 1011.8 1011.3 0.0
09/04:00am 17.8 14.7 13.5 76 2.5 S 22 30 12 16 1013.2 1012.8 0.0
09/03:30am 17.9 13.7 13.6 76 2.5 SSE 28 37 15 20 1012.5 1012.1 0.0
09/03:00am 18.2 14.7 14.5 79 2.2 SSE 26 32 14 17 1012.5 1012.1 0.0
09/02:30am 18.2 15.5 14.7 80 2.0 SE 22 30 12 16 1011.9 1011.4 0.0
09/02:00am 18.2 15.2 14.9 81 1.9 SSE 24 32 13 17 1012.1 1011.6 0.0
09/01:30am 18.3 16.1 14.8 80 2.0 SSE 20 26 11 14 1012.2 1011.8 0.0
09/01:00am 18.6 16.5 14.7 78 2.3 S 19 28 10 15 1012.5 1012.1 0.0
09/12:30am 18.9 16.8 14.6 76 2.5 S 19 24 10 13 1012.3 1011.9 0.0
09/12:00am 19.2 17.0 14.5 74 2.7 SSE 19 24 10 13 1012.2 1011.8 0.0
 
Date/Time
CST
Temp
°C
App
Temp
°C
Dew
Point
°C
Rel
Hum
%
Delta-T
°C
Wind Press
QNH
hPa
Press
MSL
hPa
Rain since
9am
mm
Dir  Spd
km/h
Gust
km/h
Spd
kts
Gust
kts
08/11:30pm 19.2 18.2 14.7 75 2.6 SSE 13 19 7 10 1012.1 1011.6 0.0
08/11:00pm 19.3 17.1 14.8 75 2.6 S 20 30 11 16 1012.5 1012.1 0.0
08/10:30pm 19.6 17.2 12.6 64 4.0 SSE 17 22 9 12 1012.1 1011.6 0.0
08/10:00pm 20.2 17.1 12.2 60 4.5 S 20 24 11 13 1012.0 1011.5 0.0
08/09:30pm 20.4 17.7 11.6 57 4.9 S 17 24 9 13 1012.0 1011.5 0.0
08/09:00pm 20.8 18.7 11.2 54 5.3 SSE 13 17 7 9 1011.7 1011.2 0.0
08/08:30pm 21.2 18.7 11.2 53 5.6 S 15 19 8 10 1011.4 1010.9 0.0
08/08:00pm 21.4 18.1 10.9 51 5.8 SSW 19 24 10 13 1011.0 1010.5 0.0
08/07:30pm 22.0 19.6 10.2 47 6.5 SSW 13 19 7 10 1010.3 1009.9 0.0
08/07:00pm 22.7 19.8 9.8 44 7.1 S 15 19 8 10 1009.9 1009.5 0.0
08/06:30pm 23.3 18.7 9.7 42 7.5 SSW 24 35 13 19 1009.8 1009.4 0.0
08/06:00pm 24.5 19.3 7.2 33 9.1 SSW 24 32 13 17 1009.5 1009.1 0.0
08/05:30pm 28.5 21.6 0.3 16 13.5 SW 26 35 14 19 1009.0 1008.6 0.0
08/05:00pm 29.9 22.9 -0.5 14 14.5 WSW 26 35 14 19 1008.9 1008.5 0.0

Other formats

Comma delimited format used in spreadsheet applications
http://www.bom.gov.au/fwo/IDS60801/IDS60801.95662.axf

JavaScript Object Notation format (JSON) in row-major order
http://www.bom.gov.au/fwo/IDS60801/IDS60801.95662.json

Data quality

Most of these data are generated automatically and are frequently updated. Quality checks on data are not normally performed. It is possible for incorrect values to appear. Refer to information at About Latest Weather Observations and please check the disclaimer before using these data.